Latest Weather Observations for Scoresby

IDV60901

Issued at 10:01 pm EST Friday 23 June 2017 (issued every 10 minutes, with the page automatically refreshed every 10 minutes)

About weather observations | Map of Melbourne area stations | Latest observations for Melbourne area | Other Formats
Station Details ID: 086104 Name: SCORESBY RESEARCH INSTITUTE Lat: -37.87 Lon: 145.26 Height: 80.0 m
Data from the previous 72 hours. | See also: Recent months at Scoresby
Date/Time
EST
Temp
°C
App
Temp
°C
Dew
Point
°C
Rel
Hum
%
Delta-T
°C
Wind Press
QNH
hPa
Press
MSL
hPa
Rain since
9am
mm
Dir  Spd
km/h
Gust
km/h
Spd
kts
Gust
kts
23/10:00pm 11.0 8.8 6.2 72 2.3 N 7 13 4 7 - - 0.0
23/09:30pm 10.6 8.4 6.2 74 2.1 NNE 7 13 4 7 - - 0.0
23/09:00pm 10.6 8.4 6.2 74 2.1 NNE 7 13 4 7 - - 0.0
23/08:30pm 10.5 7.9 6.3 75 2.0 NNE 9 17 5 9 - - 0.0
23/08:00pm 10.7 8.1 6.3 74 2.1 NNE 9 17 5 9 - - 0.0
23/07:30pm 11.4 8.4 5.9 69 2.6 N 11 22 6 12 - - 0.0
23/07:00pm 11.5 8.5 5.8 68 2.7 N 11 19 6 10 - - 0.0
23/06:30pm 11.3 8.3 6.0 70 2.5 N 11 19 6 10 - - 0.0
23/06:00pm 11.8 8.7 5.4 65 3.0 N 11 19 6 10 - - 0.0
23/05:30pm 11.7 8.2 5.6 66 2.8 N 13 24 7 13 - - 0.0
23/05:00pm 11.6 8.1 5.5 66 2.8 N 13 22 7 12 - - 0.0
23/04:30pm 11.7 8.2 5.3 65 3.0 N 13 22 7 12 - - 0.0
23/04:00pm 12.0 8.4 5.2 63 3.1 N 13 24 7 13 - - 0.0
23/03:30pm 11.9 8.3 5.1 63 3.1 N 13 28 7 15 - - 0.0
23/03:00pm 12.0 8.3 4.7 61 3.3 N 13 24 7 13 - - 0.0
23/02:30pm 12.5 7.5 4.7 59 3.6 NNW 20 32 11 17 - - 0.0
23/02:00pm 12.9 8.5 4.6 57 3.8 N 17 32 9 17 - - 0.0
23/01:30pm 13.1 8.7 4.8 57 3.8 N 17 30 9 16 - - 0.0
23/01:00pm 13.7 8.9 4.6 54 4.2 N 19 33 10 18 - - 0.0
23/12:30pm 13.4 8.3 4.3 54 4.2 N 20 35 11 19 - - 0.0
23/12:00pm 13.3 8.3 4.5 55 4.1 N 20 35 11 19 - - 0.0
23/11:30am 12.9 8.1 4.6 57 3.8 N 19 32 10 17 - - 0.0
23/11:00am 12.5 8.1 4.5 58 3.7 N 17 30 9 16 - - 0.0
23/10:30am 11.4 7.0 4.8 64 3.0 NNE 17 26 9 14 - - 0.0
23/10:00am 10.4 6.4 4.8 68 2.5 NNE 15 26 8 14 - - 0.0
23/09:30am 9.6 6.4 5.0 73 2.1 NNE 11 19 6 10 - - 0.0
23/09:00am 8.6 5.3 4.6 76 1.8 NNE 11 19 6 10 - - 0.0
23/08:30am 7.9 4.6 4.7 80 1.4 NNE 11 19 6 10 - - 0.0
23/08:00am 7.1 4.5 4.4 83 1.2 NNE 7 15 4 8 - - 0.0
23/07:30am 7.5 4.6 4.6 82 1.3 NNE 9 17 5 9 - - 0.0
23/07:00am 7.4 4.8 4.4 81 1.3 N 7 11 4 6 - - 0.0
23/06:30am 7.9 5.4 4.5 79 1.5 NNE 7 11 4 6 - - 0.0
23/06:00am 7.8 5.3 4.7 81 1.4 NNE 7 13 4 7 - - 0.0
23/05:30am 8.2 5.7 5.0 80 1.4 NNE 7 15 4 8 - - 0.0
23/05:00am 8.6 5.8 5.0 78 1.6 NNE 9 19 5 10 - - 0.0
23/04:30am 8.5 5.7 5.1 79 1.5 NNE 9 13 5 7 - - 0.0
23/04:00am 8.5 5.3 4.9 78 1.6 NNE 11 19 6 10 - - 0.0
23/03:30am 8.7 6.2 4.7 76 1.8 NNE 7 11 4 6 - - 0.0
23/03:00am 9.0 6.1 4.4 73 2.0 NNE 9 13 5 7 - - 0.0
23/02:30am 9.3 6.4 4.5 72 2.1 NNE 9 17 5 9 - - 0.0
23/02:00am 9.1 6.1 4.3 72 2.1 NE 9 15 5 8 - - 0.0
23/01:30am 9.3 6.3 4.3 71 2.2 NNE 9 13 5 7 - - 0.0
23/01:00am 9.5 6.1 4.1 69 2.4 NNE 11 17 6 9 - - 0.0
23/12:30am 9.8 6.8 4.0 67 2.6 NE 9 15 5 8 - - 0.0
23/12:00am 9.9 6.5 4.1 67 2.6 NNE 11 17 6 9 - - 0.0
 
Date/Time
EST
Temp
°C
App
Temp
°C
Dew
Point
°C
Rel
Hum
%
Delta-T
°C
Wind Press
QNH
hPa
Press
MSL
hPa
Rain since
9am
mm
Dir  Spd
km/h
Gust
km/h
Spd
kts
Gust
kts
22/11:30pm 10.0 6.6 4.0 66 2.7 NNE 11 19 6 10 - - 0.0
22/11:00pm 10.1 7.1 4.0 66 2.7 NNE 9 15 5 8 - - 0.0
22/10:30pm 10.2 7.2 4.1 66 2.7 NE 9 15 5 8 - - 0.0
22/10:00pm 10.3 6.9 4.2 66 2.7 NNE 11 17 6 9 - - 0.0
22/09:30pm 10.3 7.3 4.2 66 2.7 NNE 9 15 5 8 - - 0.0
22/09:00pm 10.1 7.1 4.3 67 2.6 NE 9 17 5 9 - - 0.0
22/08:30pm 10.0 7.0 4.0 66 2.7 NE 9 17 5 9 - - 0.0
22/08:00pm 9.8 7.2 4.2 68 2.5 NE 7 11 4 6 - - 0.0
22/07:30pm 10.5 7.6 4.4 66 2.7 NE 9 15 5 8 - - 0.0
22/07:00pm 10.8 7.9 4.5 65 2.8 NNE 9 17 5 9 - - 0.0
22/06:30pm 10.7 7.8 4.6 66 2.8 NE 9 13 5 7 - - 0.0
22/06:00pm 10.7 7.8 4.6 66 2.8 NE 9 15 5 8 - - 0.0
22/05:30pm 11.0 7.7 4.7 65 2.9 NE 11 17 6 9 - - 0.0
22/05:00pm 11.4 7.4 4.8 64 3.0 NE 15 22 8 12 - - 0.0
22/04:30pm 11.8 8.6 5.2 64 3.0 NNE 11 17 6 9 - - 0.0
22/04:00pm 12.4 9.6 5.1 61 3.4 NNE 9 17 5 9 - - 0.0
22/03:30pm 12.5 9.9 6.1 65 3.0 NNE 9 17 5 9 - - 0.0
22/03:00pm 12.6 10.4 6.2 65 3.0 NNE 7 13 4 7 - - 0.0
22/02:30pm 12.6 10.3 5.8 63 3.2 NNE 7 17 4 9 - - 0.0
22/02:00pm 12.6 10.3 5.5 62 3.3 NNE 7 13 4 7 - - 0.0
22/01:30pm 12.5 10.2 5.0 60 3.5 NNE 6 11 3 6 - - 0.0
22/01:00pm 12.3 9.5 5.2 62 3.3 NNE 9 13 5 7 - - 0.0
22/12:30pm 12.6 9.7 4.6 58 3.7 N 9 15 5 8 - - 0.0
22/12:00pm 13.2 9.5 4.6 56 4.0 NE 13 19 7 10 - - 0.0
22/11:30am 11.7 8.3 4.0 59 3.5 NNE 11 19 6 10 - - 0.0
22/11:00am 11.3 8.0 4.3 62 3.2 NNE 11 19 6 10 - - 0.0
22/10:30am 10.6 6.9 4.7 67 2.7 NE 13 19 7 10 - - 0.0
22/10:00am 9.3 6.0 4.5 72 2.1 NNE 11 17 6 9 - - 0.0
22/09:30am 8.9 6.0 4.5 74 2.0 NNE 9 15 5 8 - - 0.0
22/09:00am 8.1 5.2 4.9 80 1.4 NE 9 15 5 8 - - 0.6
22/08:30am 7.0 4.6 4.5 84 1.1 NNE 6 9 3 5 - - 0.6
22/08:00am 6.7 5.1 4.5 86 1.0 ENE 2 9 1 5 - - 0.6
22/07:30am 6.8 5.2 4.6 86 1.0 NNE 2 7 1 4 - - 0.6
22/07:00am 6.7 4.8 4.9 88 0.8 NNE 4 7 2 4 - - 0.6
22/06:30am 6.3 4.0 4.9 91 0.6 NNE 6 9 3 5 - - 0.6
22/06:00am 6.4 4.6 5.5 94 0.4 NE 4 7 2 4 - - 0.6
22/05:30am 6.0 4.1 5.1 94 0.4 NE 4 6 2 3 - - 0.6
22/05:00am 6.7 5.0 5.7 93 0.4 NW 4 7 2 4 - - 0.6
22/04:30am 7.2 6.2 5.7 90 0.7 CALM 0 0 0 0 - - 0.6
22/04:00am 8.8 8.1 7.1 89 0.8 CALM 0 2 0 1 - - 0.6
22/03:30am 9.0 7.2 7.0 87 0.9 NE 6 9 3 5 - - 0.6
22/03:00am 9.1 8.3 6.7 85 1.1 CALM 0 0 0 0 - - 0.6
22/02:30am 8.8 7.0 7.1 89 0.8 ENE 6 7 3 4 - - 0.6
22/02:00am 8.8 8.2 7.6 92 0.6 CALM 0 0 0 0 - - 0.6
22/01:30am 8.8 8.2 7.3 90 0.7 CALM 0 0 0 0 - - 0.6
22/01:00am 9.1 8.5 7.4 89 0.8 CALM 0 0 0 0 - - 0.6
22/12:30am 8.9 7.9 7.4 90 0.7 ESE 2 7 1 4 - - 0.6
22/12:00am 8.8 7.9 7.6 92 0.6 NNW 2 4 1 2 - - 0.6
 
Date/Time
EST
Temp
°C
App
Temp
°C
Dew
Point
°C
Rel
Hum
%
Delta-T
°C
Wind Press
QNH
hPa
Press
MSL
hPa
Rain since
9am
mm
Dir  Spd
km/h
Gust
km/h
Spd
kts
Gust
kts
21/11:30pm 8.8 8.2 7.6 92 0.6 CALM 0 0 0 0 - - 0.6
21/11:00pm 8.6 8.0 7.5 93 0.5 CALM 0 6 0 3 - - 0.6
21/10:30pm 8.3 7.6 7.1 92 0.6 CALM 0 0 0 0 - - 0.6
21/10:00pm 8.8 8.2 7.6 92 0.6 CALM 0 0 0 0 - - 0.6
21/09:30pm 9.0 8.4 7.6 91 0.7 CALM 0 0 0 0 - - 0.6
21/09:00pm 9.2 8.3 7.6 90 0.8 WSW 2 6 1 3 - - 0.6
21/08:30pm 9.5 9.1 8.1 91 0.7 CALM 0 0 0 0 - - 0.6
21/08:00pm 9.3 8.8 7.9 91 0.7 CALM 0 0 0 0 - - 0.6
21/07:30pm 9.4 8.9 7.8 90 0.8 CALM 0 0 0 0 - - 0.6
21/07:00pm 9.5 9.0 7.8 89 0.8 CALM 0 4 0 2 - - 0.6
21/06:30pm 9.0 8.3 7.0 87 0.9 CALM 0 0 0 0 - - 0.6
21/06:00pm 9.6 8.9 7.0 84 1.2 CALM 0 0 0 0 - - 0.6
21/05:30pm 10.5 9.8 7.0 79 1.7 CALM 0 0 0 0 - - 0.6
21/05:00pm 11.5 10.7 6.4 71 2.4 CALM 0 2 0 1 - - 0.6
21/04:30pm 11.9 10.7 6.4 69 2.6 SSW 2 6 1 3 - - 0.6
21/04:00pm 12.1 10.7 7.4 73 2.3 SSW 4 7 2 4 - - 0.6
21/03:30pm 12.2 11.0 7.9 75 2.1 SSW 4 7 2 4 - - 0.6
21/03:00pm 12.4 10.9 8.5 77 1.9 SW 6 9 3 5 - - 0.6
21/02:30pm 12.6 11.2 8.7 77 2.0 WSW 6 9 3 5 - - 0.6
21/02:00pm 12.6 11.2 9.4 81 1.6 SW 7 13 4 7 - - 0.6
21/01:30pm 12.2 11.8 9.8 85 1.2 ESE 2 7 1 4 - - 0.6
21/01:00pm 12.2 11.8 9.6 84 1.3 NE 2 6 1 3 - - 0.6
21/12:30pm 11.7 10.6 9.8 88 1.0 NNE 6 9 3 5 - - 0.6
21/12:00pm 11.0 10.2 9.8 92 0.6 NNE 4 7 2 4 - - 0.6
21/11:30am 10.6 9.4 9.7 94 0.5 NNE 6 7 3 4 - - 0.6
21/11:00am 10.1 8.8 9.2 94 0.4 NNE 6 7 3 4 - - 0.4
21/10:30am 10.3 9.5 9.5 95 0.4 NNE 4 9 2 5 - - 0.4
21/10:00am 10.1 9.2 9.3 95 0.4 NNE 4 7 2 4 - - 0.4
21/09:30am 9.8 9.6 9.2 96 0.3 CALM 0 6 0 3 - - 0.4
21/09:00am 9.6 8.6 8.8 95 0.4 NNE 4 6 2 3 - - 1.2
21/08:30am 9.5 8.8 8.7 95 0.4 NE 2 6 1 3 - - 1.0
21/08:00am 9.4 9.1 8.5 94 0.4 CALM 0 0 0 0 - - 1.0
21/07:30am 9.4 9.0 8.3 93 0.5 CALM 0 4 0 2 - - 0.6
21/07:00am 9.6 9.2 8.4 92 0.6 CALM 0 0 0 0 - - 0.4
21/06:30am 9.9 9.4 7.8 87 1.0 CALM 0 0 0 0 - - 0.2
21/06:00am 10.0 9.4 7.4 84 1.2 CALM 0 0 0 0 - - 0.2
21/05:30am 10.2 9.6 7.3 82 1.4 CALM 0 0 0 0 - - 0.2
21/05:00am 10.5 9.4 7.0 79 1.7 N 2 6 1 3 - - 0.2
21/04:30am 10.1 8.7 7.2 82 1.4 WSW 4 7 2 4 - - 0.2
21/04:00am 11.0 8.5 6.7 75 2.0 NNE 9 17 5 9 - - 0.0
21/03:30am 11.2 8.3 6.5 73 2.2 NNE 11 19 6 10 - - 0.0
21/03:00am 11.0 8.9 6.6 74 2.1 NE 7 17 4 9 - - 0.0
21/02:30am 10.8 7.9 6.4 74 2.1 NE 11 17 6 9 - - 0.0
21/02:00am 11.0 8.1 6.6 74 2.1 NE 11 19 6 10 - - 0.0
21/01:30am 9.7 7.1 6.1 78 1.7 NE 9 13 5 7 - - 0.0
21/01:00am 9.6 6.9 5.8 77 1.7 NNE 9 13 5 7 - - 0.0
21/12:30am 9.8 7.1 5.8 76 1.8 NNE 9 15 5 8 - - 0.0
21/12:00am 10.4 7.7 5.8 73 2.1 NNE 9 13 5 7 - - 0.0
 
Date/Time
EST
Temp
°C
App
Temp
°C
Dew
Point
°C
Rel
Hum
%
Delta-T
°C
Wind Press
QNH
hPa
Press
MSL
hPa
Rain since
9am
mm
Dir  Spd
km/h
Gust
km/h
Spd
kts
Gust
kts
20/11:30pm 10.3 7.3 5.9 74 2.0 NNE 11 17 6 9 - - 0.0
20/11:00pm 10.0 7.0 5.8 75 1.9 NE 11 17 6 9 - - 0.0
20/10:30pm 10.2 7.1 5.6 73 2.1 NNE 11 22 6 12 - - 0.0

Latest Capital City Observations: Canberra | Sydney | Melbourne | Brisbane | Adelaide | Perth | Hobart | Darwin

Other Formats:

Comma delimited format used in spreadsheet applications
http://www.bom.gov.au/fwo/IDV60901/IDV60901.95867.axf

JavaScript Object Notation format (JSON) in row-major order
http://www.bom.gov.au/fwo/IDV60901/IDV60901.95867.json